createdAt,value
2019-03-20T00:01:43.398Z,30.50
2019-03-20T00:04:02.177Z,30.50
2019-03-20T00:06:29.129Z,30.50
2019-03-20T00:08:56.017Z,30.40
2019-03-20T00:11:22.923Z,30.70
2019-03-20T00:13:49.685Z,31.30
2019-03-20T00:16:17.057Z,30.60
2019-03-20T00:18:43.838Z,30.50
2019-03-20T00:21:10.803Z,30.50
2019-03-20T00:23:38.284Z,30.50
2019-03-20T00:26:05.732Z,30.60
2019-03-20T00:28:32.736Z,30.60
2019-03-20T00:30:59.893Z,30.60
2019-03-20T00:33:27.043Z,30.50
2019-03-20T00:35:53.793Z,30.50
2019-03-20T00:38:21.295Z,30.50
2019-03-20T00:40:48.561Z,30.40
2019-03-20T00:43:15.497Z,30.40
2019-03-20T00:45:42.388Z,30.50
2019-03-20T00:48:09.116Z,30.40
2019-03-20T00:50:36.084Z,30.50
2019-03-20T00:53:02.882Z,30.40
2019-03-20T00:55:29.683Z,30.40
2019-03-20T00:57:56.473Z,30.40
2019-03-20T01:00:24.458Z,30.40
2019-03-20T01:02:51.691Z,30.40
2019-03-20T01:05:21.347Z,30.30
2019-03-20T01:07:48.555Z,30.40
2019-03-20T01:10:18.828Z,30.30
2019-03-20T01:12:45.605Z,30.30
2019-03-20T01:15:13.176Z,30.40
2019-03-20T01:17:40.372Z,30.20
2019-03-20T01:20:12.138Z,30.20
2019-03-20T01:22:39.362Z,30.20
2019-03-20T01:25:08.939Z,30.30
2019-03-20T01:27:36.252Z,30.10
2019-03-20T01:30:12.564Z,30.10
2019-03-20T01:32:39.855Z,30.20
2019-03-20T01:35:06.897Z,30.90
2019-03-20T01:37:33.782Z,30.20
2019-03-20T01:40:00.997Z,30.10
2019-03-20T01:42:27.817Z,30.10
2019-03-20T01:44:54.545Z,30.10
2019-03-20T01:47:21.356Z,30.20
2019-03-20T01:49:48.092Z,30.10
2019-03-20T01:52:14.875Z,29.80
2019-03-20T01:54:41.632Z,30.10
2019-03-20T01:57:08.469Z,30.00
2019-03-20T01:59:35.250Z,30.00
2019-03-20T02:02:02.698Z,30.00
2019-03-20T02:04:29.598Z,30.00
2019-03-20T02:06:56.501Z,30.70
2019-03-20T02:09:23.387Z,30.10
2019-03-20T02:11:50.144Z,30.00
2019-03-20T02:14:17.016Z,30.10
2019-03-20T02:16:43.784Z,30.00
2019-03-20T02:19:11.141Z,30.00
2019-03-20T02:21:37.938Z,30.10
2019-03-20T02:24:04.873Z,30.00
2019-03-20T02:26:31.657Z,30.00
2019-03-20T02:28:58.502Z,30.50
2019-03-20T02:31:25.281Z,30.00
2019-03-20T02:33:52.023Z,30.60
2019-03-20T02:36:19.064Z,30.00
2019-03-20T02:38:46.180Z,30.00
2019-03-20T02:41:15.018Z,30.00
2019-03-20T02:43:42.058Z,30.00
2019-03-20T02:46:08.794Z,30.00
2019-03-20T02:48:35.540Z,30.00
2019-03-20T02:51:02.634Z,30.00
2019-03-20T02:53:29.378Z,30.00
2019-03-20T02:55:56.097Z,30.00
2019-03-20T02:58:22.853Z,29.80
2019-03-20T03:00:49.815Z,30.00
2019-03-20T03:03:16.625Z,30.00
2019-03-20T03:05:43.421Z,29.90
2019-03-20T03:08:10.172Z,30.00
2019-03-20T03:10:37.019Z,30.00
2019-03-20T03:13:03.775Z,30.00
2019-03-20T03:15:30.740Z,29.90
2019-03-20T03:17:57.900Z,30.00
2019-03-20T03:20:24.655Z,30.00
2019-03-20T03:22:53.775Z,29.90
2019-03-20T03:25:20.507Z,29.90
2019-03-20T03:27:47.658Z,30.00
2019-03-20T03:30:16.360Z,30.00
2019-03-20T03:32:43.415Z,29.90
2019-03-20T03:35:17.229Z,30.00
2019-03-20T03:37:40.279Z,29.90
2019-03-20T03:40:17.437Z,29.90
2019-03-20T03:42:44.999Z,29.80
2019-03-20T03:45:17.720Z,29.90
2019-03-20T03:47:45.027Z,29.90
2019-03-20T03:50:12.037Z,29.80
2019-03-20T03:52:39.346Z,29.90
2019-03-20T03:55:08.584Z,29.90
2019-03-20T03:57:35.872Z,29.80
2019-03-20T04:00:09.732Z,29.80
2019-03-20T04:02:36.586Z,29.90
2019-03-20T04:05:04.192Z,29.90
2019-03-20T04:07:30.928Z,29.90
2019-03-20T04:09:59.099Z,29.80
2019-03-20T04:12:26.317Z,29.90
2019-03-20T04:14:53.092Z,29.90
2019-03-20T04:17:22.386Z,29.90
2019-03-20T04:19:49.588Z,29.80
2019-03-20T04:22:16.734Z,29.80
2019-03-20T04:24:43.528Z,29.80
2019-03-20T04:27:10.419Z,29.80
2019-03-20T04:29:38.617Z,29.90
2019-03-20T04:32:05.376Z,29.80
2019-03-20T04:34:32.493Z,30.30
2019-03-20T04:36:59.235Z,29.80
2019-03-20T04:39:26.414Z,29.80
2019-03-20T04:41:53.137Z,29.90
2019-03-20T04:44:19.980Z,29.70
2019-03-20T04:46:46.770Z,29.70
2019-03-20T04:49:13.692Z,30.10
2019-03-20T04:51:41.020Z,29.70
2019-03-20T04:54:08.224Z,29.70
2019-03-20T04:56:34.961Z,29.80
2019-03-20T04:59:01.751Z,29.80
2019-03-20T05:01:29.772Z,29.70
2019-03-20T05:03:56.571Z,29.80
2019-03-20T05:06:23.379Z,29.80
2019-03-20T05:08:50.215Z,30.00
2019-03-20T05:11:16.995Z,30.00
2019-03-20T05:13:43.823Z,30.00
2019-03-20T05:16:11.071Z,30.00
2019-03-20T05:18:37.826Z,30.00
2019-03-20T05:21:04.589Z,30.00
2019-03-20T05:23:31.470Z,30.00
2019-03-20T05:25:58.266Z,30.00
2019-03-20T05:28:25.365Z,30.00
2019-03-20T05:30:52.198Z,30.00
2019-03-20T05:33:18.964Z,29.90
2019-03-20T05:35:45.869Z,29.90
2019-03-20T05:38:12.672Z,29.90
2019-03-20T05:40:39.399Z,29.90
2019-03-20T05:43:06.660Z,29.80
2019-03-20T05:45:33.396Z,29.70
2019-03-20T05:48:00.112Z,29.80
2019-03-20T05:50:26.851Z,29.80
2019-03-20T05:52:53.911Z,29.70
2019-03-20T05:55:21.053Z,29.80
2019-03-20T05:57:47.937Z,29.70
2019-03-20T06:00:24.261Z,29.60
2019-03-20T06:02:51.110Z,29.50
2019-03-20T06:05:20.042Z,29.40
2019-03-20T06:07:47.260Z,29.80
2019-03-20T06:10:15.592Z,29.20
2019-03-20T06:12:42.662Z,29.20
2019-03-20T06:15:09.546Z,29.10
2019-03-20T06:17:36.701Z,29.10
2019-03-20T06:20:08.330Z,29.00
2019-03-20T06:22:35.505Z,28.90
2019-03-20T06:25:05.535Z,28.90
2019-03-20T06:27:32.349Z,28.90
2019-03-20T06:29:59.188Z,28.90
2019-03-20T06:32:26.134Z,28.90
2019-03-20T06:34:56.892Z,28.90
2019-03-20T06:37:32.124Z,29.30
2019-03-20T06:39:53.492Z,29.00
2019-03-20T06:42:20.557Z,29.00
2019-03-20T06:44:47.552Z,29.00
2019-03-20T06:47:14.525Z,29.00
2019-03-20T06:49:41.278Z,29.00
2019-03-20T06:52:08.518Z,28.90
2019-03-20T06:54:35.671Z,28.90
2019-03-20T06:57:02.444Z,28.90
2019-03-20T06:59:37.658Z,28.90
2019-03-20T07:02:05.936Z,28.80
2019-03-20T07:05:17.825Z,28.80
2019-03-20T07:07:44.652Z,28.70
2019-03-20T07:10:20.211Z,28.70
2019-03-20T07:12:47.489Z,28.60
2019-03-20T07:15:14.213Z,28.70
2019-03-20T07:17:43.832Z,28.70
2019-03-20T07:20:11.015Z,28.80
2019-03-20T07:22:39.291Z,28.90
2019-03-20T07:25:06.192Z,28.60
2019-03-20T07:27:33.190Z,28.70
2019-03-20T07:30:00.065Z,28.70
2019-03-20T07:32:26.822Z,28.60
2019-03-20T07:34:53.588Z,28.80
2019-03-20T07:37:20.330Z,28.90
2019-03-20T07:39:48.875Z,28.80
2019-03-20T07:42:15.625Z,28.80
2019-03-20T07:44:42.776Z,28.90
2019-03-20T07:47:09.632Z,29.00
2019-03-20T07:49:37.043Z,29.00
2019-03-20T07:52:04.287Z,29.00
2019-03-20T07:54:36.366Z,28.90
2019-03-20T07:57:05.517Z,29.00
2019-03-20T07:59:32.688Z,29.00
2019-03-20T08:02:00.849Z,29.00
2019-03-20T08:04:27.659Z,28.90
2019-03-20T08:06:54.406Z,28.80
2019-03-20T08:09:21.195Z,28.50
2019-03-20T08:11:48.258Z,27.00
2019-03-20T08:14:15.363Z,24.90
2019-03-20T08:16:42.519Z,24.00
2019-03-20T08:19:09.505Z,23.50
2019-03-20T08:21:36.462Z,23.20
2019-03-20T08:24:03.971Z,23.00
2019-03-20T08:26:30.963Z,22.80
2019-03-20T08:28:57.739Z,22.70
2019-03-20T08:31:24.579Z,22.50
2019-03-20T08:33:51.360Z,22.50
2019-03-20T08:36:18.864Z,22.20
2019-03-20T08:38:45.941Z,22.20
2019-03-20T08:41:13.978Z,22.00
2019-03-20T08:43:40.932Z,21.90
2019-03-20T08:46:08.179Z,21.90
2019-03-20T08:48:35.076Z,22.00
2019-03-20T08:51:02.228Z,22.80
2019-03-20T08:53:29.026Z,24.00
2019-03-20T08:55:56.085Z,24.70
2019-03-20T08:58:38.526Z,25.40
2019-03-20T09:01:05.607Z,25.80
2019-03-20T09:03:32.812Z,26.10
2019-03-20T09:06:00.053Z,26.10
2019-03-20T09:08:29.756Z,26.10
2019-03-20T09:10:56.451Z,26.20
2019-03-20T09:13:23.658Z,26.20
2019-03-20T09:15:50.780Z,26.40
2019-03-20T09:18:17.606Z,26.30
2019-03-20T09:20:46.855Z,26.40
2019-03-20T09:23:13.641Z,26.30
2019-03-20T09:25:42.048Z,26.10
2019-03-20T09:28:08.862Z,26.10
2019-03-20T09:30:35.593Z,26.00
2019-03-20T09:33:02.795Z,26.10
2019-03-20T09:35:30.349Z,26.00
2019-03-20T09:37:57.409Z,26.10
2019-03-20T09:40:26.916Z,26.50
2019-03-20T09:42:53.702Z,26.70
2019-03-20T09:45:21.768Z,26.80
2019-03-20T09:47:52.032Z,27.00
2019-03-20T09:50:26.470Z,27.00
2019-03-20T09:52:53.212Z,27.20
2019-03-20T09:55:20.130Z,27.10
2019-03-20T09:57:46.873Z,27.20
2019-03-20T10:00:26.906Z,27.30
2019-03-20T10:02:53.982Z,27.30
2019-03-20T10:05:20.957Z,27.30
2019-03-20T10:07:47.909Z,27.40
2019-03-20T10:10:25.925Z,27.40
2019-03-20T10:12:53.217Z,27.50
2019-03-20T10:15:27.547Z,27.50
2019-03-20T10:17:55.203Z,27.60
2019-03-20T10:20:22.879Z,27.70
2019-03-20T10:22:50.203Z,27.60
2019-03-20T10:25:17.265Z,27.80
2019-03-20T10:27:47.125Z,27.70
2019-03-20T10:30:28.403Z,27.70
2019-03-20T10:32:57.228Z,27.70
2019-03-20T10:35:24.742Z,27.70
2019-03-20T10:37:51.949Z,27.80
2019-03-20T10:40:24.717Z,28.00
2019-03-20T10:42:52.272Z,27.70
2019-03-20T10:45:19.919Z,28.00
2019-03-20T10:47:48.878Z,28.10
2019-03-20T10:50:25.900Z,28.20
2019-03-20T10:52:52.792Z,28.80
2019-03-20T10:55:19.947Z,28.10
2019-03-20T10:57:47.426Z,28.20
2019-03-20T11:00:31.343Z,28.10
2019-03-20T11:02:59.212Z,27.90
2019-03-20T11:05:28.348Z,27.80
2019-03-20T11:07:55.671Z,28.00
2019-03-20T11:10:29.179Z,27.60
2019-03-20T11:12:57.039Z,27.90
2019-03-20T11:15:25.484Z,28.10
2019-03-20T11:17:52.387Z,28.10
2019-03-20T11:20:21.237Z,28.10
2019-03-20T11:22:48.030Z,28.10
2019-03-20T11:25:27.665Z,28.00
2019-03-20T11:27:55.081Z,27.90
2019-03-20T11:30:28.622Z,28.10
2019-03-20T11:32:55.893Z,28.20
2019-03-20T11:35:25.130Z,28.10
2019-03-20T11:37:52.052Z,28.40
2019-03-20T11:40:38.240Z,28.20
2019-03-20T11:43:05.055Z,28.50
2019-03-20T11:45:31.908Z,28.60
2019-03-20T11:47:59.123Z,28.70
2019-03-20T11:50:38.118Z,28.80
2019-03-20T11:53:08.848Z,28.70
2019-03-20T11:55:46.359Z,28.80
2019-03-20T11:58:13.255Z,28.70
2019-03-20T12:00:40.089Z,28.80
2019-03-20T12:03:07.247Z,28.70
2019-03-20T12:05:34.613Z,28.70
2019-03-20T12:08:01.419Z,28.70
2019-03-20T12:10:29.868Z,28.70
2019-03-20T12:12:57.177Z,28.80
2019-03-20T12:15:24.381Z,28.70
2019-03-20T12:17:51.327Z,28.80
2019-03-20T12:20:20.951Z,28.80
2019-03-20T12:22:49.401Z,28.90
2019-03-20T12:25:29.457Z,29.00
2019-03-20T12:27:57.016Z,28.90
2019-03-20T12:30:33.368Z,28.90
2019-03-20T12:33:00.407Z,29.00
2019-03-20T12:35:44.194Z,29.10
2019-03-20T12:38:14.844Z,29.10
2019-03-20T12:40:39.774Z,29.20
2019-03-20T12:43:07.256Z,29.20
2019-03-20T12:45:35.817Z,29.10
2019-03-20T12:48:09.059Z,29.30
2019-03-20T12:50:35.988Z,29.20
2019-03-20T12:53:05.998Z,29.30
2019-03-20T12:55:32.922Z,29.20
2019-03-20T12:57:59.904Z,29.10
2019-03-20T13:00:27.719Z,29.10
2019-03-20T13:02:55.009Z,29.10
2019-03-20T13:05:22.989Z,29.00
2019-03-20T13:07:52.354Z,29.10
2019-03-20T13:10:25.485Z,29.20
2019-03-20T13:12:52.842Z,29.00
2019-03-20T13:15:21.655Z,29.20
2019-03-20T13:17:49.481Z,29.20
2019-03-20T13:20:18.000Z,29.20
2019-03-20T13:23:07.342Z,29.20
2019-03-20T13:25:34.523Z,29.30
2019-03-20T13:28:01.678Z,29.30
2019-03-20T13:30:57.899Z,29.40
2019-03-20T13:33:25.911Z,29.80
2019-03-20T13:35:53.221Z,29.30
2019-03-20T13:38:20.166Z,29.30
2019-03-20T13:40:46.962Z,29.30
2019-03-20T13:43:13.833Z,29.30
2019-03-20T13:45:40.639Z,29.10
2019-03-20T13:48:07.410Z,29.00
2019-03-20T13:50:34.232Z,29.20
2019-03-20T13:53:01.140Z,29.00
2019-03-20T13:55:28.454Z,28.80
2019-03-20T13:57:55.741Z,28.90
2019-03-20T14:00:25.529Z,28.80
2019-03-20T14:02:52.866Z,28.80
2019-03-20T14:05:20.217Z,28.80
2019-03-20T14:07:47.343Z,28.80
2019-03-20T14:10:29.821Z,29.10
2019-03-20T14:12:56.762Z,29.20
2019-03-20T14:15:24.358Z,29.40
2019-03-20T14:17:51.153Z,29.30
2019-03-20T14:20:29.050Z,29.30
2019-03-20T14:22:56.116Z,29.00
2019-03-20T14:25:24.783Z,29.50
2019-03-20T14:27:52.112Z,29.50
2019-03-20T14:30:27.533Z,29.50
2019-03-20T14:32:55.244Z,29.50
2019-03-20T14:35:22.376Z,29.50
2019-03-20T14:37:50.095Z,29.50
2019-03-20T14:40:21.998Z,29.60
2019-03-20T14:42:48.839Z,29.60
2019-03-20T14:45:15.730Z,29.60
2019-03-20T14:47:42.941Z,29.70
2019-03-20T14:50:13.905Z,29.60
2019-03-20T14:52:40.838Z,30.10
2019-03-20T14:55:11.378Z,29.70
2019-03-20T14:57:38.334Z,29.70
2019-03-20T15:00:24.744Z,29.70
2019-03-20T15:02:52.130Z,29.50
2019-03-20T15:05:18.942Z,29.40
2019-03-20T15:07:46.178Z,29.50
2019-03-20T15:10:26.347Z,29.40
2019-03-20T15:12:54.001Z,29.40
2019-03-20T15:15:38.154Z,29.40
2019-03-20T15:18:07.348Z,29.50
2019-03-20T15:20:34.456Z,29.30
2019-03-20T15:23:01.423Z,29.40
2019-03-20T15:25:28.245Z,29.40
2019-03-20T15:27:57.073Z,29.50
2019-03-20T15:30:25.117Z,29.50
2019-03-20T15:32:52.036Z,29.40
2019-03-20T15:35:20.912Z,29.50
2019-03-20T15:37:48.314Z,29.50
2019-03-20T15:40:21.310Z,29.50
2019-03-20T15:42:48.462Z,29.60
2019-03-20T15:45:17.288Z,29.70
2019-03-20T15:47:44.738Z,29.70
2019-03-20T15:50:16.137Z,29.80
2019-03-20T15:52:42.934Z,29.90
2019-03-20T15:55:26.351Z,29.90
2019-03-20T15:57:53.356Z,29.90
2019-03-20T16:00:21.613Z,29.90
2019-03-20T16:02:59.398Z,29.90
2019-03-20T16:05:26.262Z,29.90
2019-03-20T16:07:53.783Z,29.90
2019-03-20T16:10:22.071Z,30.00
2019-03-20T16:12:48.971Z,30.00
2019-03-20T16:15:22.002Z,29.90
2019-03-20T16:17:48.803Z,30.30
2019-03-20T16:20:17.008Z,29.90
2019-03-20T16:22:47.407Z,29.90
2019-03-20T16:25:20.701Z,29.90
2019-03-20T16:27:47.705Z,29.90
2019-03-20T16:30:22.717Z,29.90
2019-03-20T16:32:50.068Z,29.90
2019-03-20T16:35:16.912Z,29.90
2019-03-20T16:37:44.188Z,30.00
2019-03-20T16:40:24.703Z,30.00
2019-03-20T16:42:51.554Z,30.00
2019-03-20T16:45:22.637Z,30.00
2019-03-20T16:47:49.428Z,30.00
2019-03-20T16:50:16.917Z,30.00
2019-03-20T16:52:44.126Z,30.00
2019-03-20T16:55:15.100Z,30.00
2019-03-20T16:57:41.979Z,30.00
2019-03-20T17:00:19.744Z,30.00
2019-03-20T17:02:46.818Z,30.00
2019-03-20T17:05:13.686Z,30.20
2019-03-20T17:07:40.460Z,30.10
2019-03-20T17:10:15.272Z,30.10
2019-03-20T17:12:42.355Z,30.10
2019-03-20T17:15:14.374Z,30.10
2019-03-20T17:17:41.618Z,30.10
2019-03-20T17:20:08.429Z,30.10
2019-03-20T17:22:41.925Z,30.10
2019-03-20T17:25:08.510Z,30.30
2019-03-20T17:27:35.769Z,30.30
2019-03-20T17:30:17.113Z,30.30
2019-03-20T17:32:43.886Z,30.20
2019-03-20T17:35:12.287Z,30.30
2019-03-20T17:37:39.610Z,30.40
2019-03-20T17:40:17.943Z,30.40
2019-03-20T17:42:44.773Z,30.30
2019-03-20T17:45:15.893Z,30.50
2019-03-20T17:47:42.718Z,30.50
2019-03-20T17:50:15.031Z,30.50
2019-03-20T17:52:42.213Z,30.50
2019-03-20T17:55:09.304Z,30.60
2019-03-20T17:57:36.183Z,30.70
2019-03-20T18:00:08.833Z,30.60
2019-03-20T18:02:35.655Z,30.80
2019-03-20T18:05:06.035Z,30.80
2019-03-20T18:07:32.862Z,30.80
2019-03-20T18:10:02.289Z,30.80
2019-03-20T18:12:29.389Z,30.90
2019-03-20T18:14:58.295Z,31.00
2019-03-20T18:17:25.314Z,31.00
2019-03-20T18:19:52.726Z,31.10
2019-03-20T18:22:20.130Z,31.20
2019-03-20T18:24:47.325Z,31.20
2019-03-20T18:27:14.105Z,31.30
2019-03-20T18:29:40.899Z,31.30
2019-03-20T18:32:08.261Z,31.40
2019-03-20T18:34:35.098Z,31.30
2019-03-20T18:37:02.362Z,31.50
2019-03-20T18:39:29.296Z,31.50
2019-03-20T18:41:57.889Z,31.50
2019-03-20T18:44:24.945Z,31.60
2019-03-20T18:46:51.688Z,31.60
2019-03-20T18:49:18.636Z,31.70
2019-03-20T18:51:45.713Z,31.70
2019-03-20T18:54:12.594Z,31.80
2019-03-20T18:56:39.490Z,32.40
2019-03-20T18:59:06.248Z,31.80
2019-03-20T19:01:33.011Z,31.90
2019-03-20T19:04:00.108Z,32.00
2019-03-20T19:06:29.548Z,32.00
2019-03-20T19:08:56.324Z,32.00
2019-03-20T19:11:23.188Z,32.00
2019-03-20T19:13:50.104Z,32.00
2019-03-20T19:16:16.845Z,32.00
2019-03-20T19:18:43.604Z,32.00
2019-03-20T19:21:10.507Z,32.10
2019-03-20T19:23:37.263Z,32.00
2019-03-20T19:26:04.175Z,32.00
2019-03-20T19:28:31.061Z,32.00
2019-03-20T19:30:57.809Z,32.10
2019-03-20T19:33:24.579Z,32.10
2019-03-20T19:35:51.389Z,32.10
2019-03-20T19:38:18.233Z,32.10
2019-03-20T19:40:45.439Z,32.10
2019-03-20T19:43:12.244Z,32.10
2019-03-20T19:45:39.078Z,32.20
2019-03-20T19:48:06.354Z,32.20
2019-03-20T19:50:33.122Z,32.20
2019-03-20T19:53:00.236Z,32.20
2019-03-20T19:55:27.718Z,32.20
2019-03-20T19:57:54.863Z,32.20
2019-03-20T20:00:26.707Z,32.30
2019-03-20T20:02:53.522Z,32.70
2019-03-20T20:05:20.591Z,32.20
2019-03-20T20:07:47.363Z,32.10
2019-03-20T20:10:15.669Z,32.20
2019-03-20T20:12:42.440Z,32.10
2019-03-20T20:15:28.148Z,32.30
2019-03-20T20:17:54.971Z,32.10
2019-03-20T20:20:29.486Z,32.10
2019-03-20T20:22:56.256Z,32.10
2019-03-20T20:25:23.531Z,32.20
2019-03-20T20:27:50.392Z,32.00
2019-03-20T20:30:18.561Z,32.10
2019-03-20T20:32:45.348Z,32.10
2019-03-20T20:35:14.033Z,32.10
2019-03-20T20:37:40.985Z,32.10
2019-03-20T20:40:18.290Z,32.20
2019-03-20T20:42:45.084Z,32.10
2019-03-20T20:45:12.126Z,32.10
2019-03-20T20:47:40.679Z,32.10
2019-03-20T20:50:11.614Z,32.80
2019-03-20T20:52:38.433Z,32.20
2019-03-20T20:55:19.107Z,32.20
2019-03-20T20:57:45.889Z,32.10
2019-03-20T21:00:22.406Z,32.20
2019-03-20T21:02:49.178Z,32.20
2019-03-20T21:05:16.097Z,32.20
2019-03-20T21:07:42.886Z,32.20
2019-03-20T21:10:16.805Z,32.20
2019-03-20T21:12:55.065Z,32.20
2019-03-20T21:15:33.221Z,32.10
2019-03-20T21:18:40.216Z,32.10
2019-03-20T21:21:06.998Z,32.20
2019-03-20T21:23:58.781Z,32.10
2019-03-20T21:27:03.894Z,32.10
2019-03-20T21:30:23.872Z,32.10
2019-03-20T21:32:59.414Z,32.60
2019-03-20T21:36:22.679Z,32.00
2019-03-20T21:38:51.365Z,32.10
2019-03-20T21:41:29.838Z,32.10
2019-03-20T21:44:39.039Z,32.80
2019-03-20T21:47:34.718Z,32.00
2019-03-20T21:50:19.859Z,32.10
2019-03-20T21:52:46.956Z,32.10
2019-03-20T21:55:22.434Z,32.10
2019-03-20T21:58:00.958Z,32.10
2019-03-20T22:01:11.647Z,32.20
2019-03-20T22:03:38.581Z,32.10
2019-03-20T22:06:11.036Z,32.00
2019-03-20T22:08:37.805Z,32.10
2019-03-20T22:11:33.801Z,32.10
2019-03-20T22:14:11.076Z,32.10
2019-03-20T22:17:03.633Z,32.00
2019-03-20T22:19:52.664Z,32.00
2019-03-20T22:22:45.994Z,32.10
2019-03-20T22:25:39.107Z,32.00
2019-03-20T22:28:38.906Z,32.00
2019-03-20T22:31:06.025Z,32.00
2019-03-20T22:34:30.045Z,32.00
2019-03-20T22:36:56.781Z,31.90
2019-03-20T22:40:11.678Z,31.90
2019-03-20T22:42:56.122Z,31.90
2019-03-20T22:46:23.038Z,32.00
2019-03-20T22:49:24.635Z,32.00
2019-03-20T22:52:16.476Z,32.00
2019-03-20T22:55:11.883Z,31.90
2019-03-20T22:58:02.488Z,31.90
2019-03-20T23:00:31.514Z,32.00
2019-03-20T23:03:22.423Z,31.90
2019-03-20T23:05:49.762Z,31.80
2019-03-20T23:08:16.926Z,31.80
2019-03-20T23:10:48.450Z,31.80
2019-03-20T23:13:19.210Z,31.80
2019-03-20T23:15:44.057Z,31.90
2019-03-20T23:18:10.809Z,31.80
2019-03-20T23:20:37.570Z,31.80
2019-03-20T23:23:04.350Z,31.30
2019-03-20T23:25:31.381Z,31.80
2019-03-20T23:28:00.319Z,31.80
2019-03-20T23:30:30.882Z,31.80
2019-03-20T23:32:57.965Z,31.80
2019-03-20T23:35:24.699Z,31.80
2019-03-20T23:37:51.472Z,31.80
2019-03-20T23:40:18.244Z,31.80
2019-03-20T23:42:50.443Z,31.80
2019-03-20T23:45:18.384Z,31.90
2019-03-20T23:47:58.422Z,31.80
2019-03-20T23:50:25.796Z,32.50
2019-03-20T23:52:52.545Z,31.90
2019-03-20T23:55:19.652Z,31.80
2019-03-20T23:57:46.367Z,31.80
